createdAt,value
2016-08-20T00:00:14.420Z,67.04
2016-08-20T00:00:48.698Z,67.14
2016-08-20T00:01:22.991Z,67.14
2016-08-20T00:01:57.284Z,67.14
2016-08-20T00:02:31.588Z,67.14
2016-08-20T00:03:05.870Z,66.94
2016-08-20T00:03:40.176Z,67.04
2016-08-20T00:04:14.479Z,67.04
2016-08-20T00:04:48.780Z,66.94
2016-08-20T00:05:23.076Z,67.14
2016-08-20T00:05:57.370Z,67.14
2016-08-20T00:06:31.667Z,67.04
2016-08-20T00:07:05.947Z,67.14
2016-08-20T00:07:40.248Z,67.14
2016-08-20T00:08:14.566Z,67.04
2016-08-20T00:08:48.866Z,67.04
2016-08-20T00:09:23.166Z,67.14
2016-08-20T00:09:57.469Z,67.14
2016-08-20T00:10:31.780Z,67.04
2016-08-20T00:11:06.073Z,67.14
2016-08-20T00:11:40.361Z,67.04
2016-08-20T00:12:14.655Z,67.24
2016-08-20T00:12:48.945Z,67.04
2016-08-20T00:13:23.243Z,66.94
2016-08-20T00:13:57.537Z,67.04
2016-08-20T00:14:31.838Z,66.94
2016-08-20T00:15:06.125Z,67.04
2016-08-20T00:15:40.424Z,67.14
2016-08-20T00:16:14.730Z,66.94
2016-08-20T00:16:49.039Z,67.14
2016-08-20T00:17:23.343Z,66.85
2016-08-20T00:17:57.647Z,67.04
2016-08-20T00:18:31.950Z,66.85
2016-08-20T00:19:06.256Z,66.75
2016-08-20T00:19:40.544Z,67.14
2016-08-20T00:20:14.847Z,66.75
2016-08-20T00:20:49.167Z,66.75
2016-08-20T00:21:23.449Z,66.85
2016-08-20T00:21:57.750Z,66.85
2016-08-20T00:22:32.035Z,66.85
2016-08-20T00:23:06.328Z,67.14
2016-08-20T00:23:40.627Z,67.04
2016-08-20T00:24:14.937Z,66.85
2016-08-20T00:24:49.231Z,66.85
2016-08-20T00:25:23.528Z,67.04
2016-08-20T00:25:57.811Z,66.94
2016-08-20T00:26:32.109Z,67.04
2016-08-20T00:27:06.393Z,66.85
2016-08-20T00:27:40.700Z,67.04
2016-08-20T00:28:14.991Z,67.43
2016-08-20T00:28:49.295Z,66.85
2016-08-20T00:29:23.583Z,67.14
2016-08-20T00:29:57.886Z,66.85
2016-08-20T00:30:32.175Z,66.85
2016-08-20T00:31:06.473Z,66.75
2016-08-20T00:31:40.764Z,67.14
2016-08-20T00:32:15.049Z,66.85
2016-08-20T00:32:49.335Z,66.85
2016-08-20T00:33:23.631Z,67.04
2016-08-20T00:33:57.941Z,67.14
2016-08-20T00:34:32.238Z,66.85
2016-08-20T00:35:06.545Z,66.85
2016-08-20T00:35:40.829Z,67.14
2016-08-20T00:36:15.142Z,66.94
2016-08-20T00:36:49.437Z,67.14
2016-08-20T00:37:23.736Z,67.24
2016-08-20T00:37:58.033Z,67.14
2016-08-20T00:38:32.329Z,67.04
2016-08-20T00:39:06.610Z,67.04
2016-08-20T00:39:40.904Z,67.24
2016-08-20T00:40:15.208Z,67.24
2016-08-20T00:40:49.525Z,67.14
2016-08-20T00:41:23.820Z,67.14
2016-08-20T00:41:58.120Z,67.14
2016-08-20T00:42:32.400Z,67.14
2016-08-20T00:43:06.700Z,67.24
2016-08-20T00:43:40.999Z,67.24
2016-08-20T00:44:15.293Z,67.33
2016-08-20T00:44:49.598Z,67.14
2016-08-20T00:45:23.888Z,67.33
2016-08-20T00:45:58.196Z,67.33
2016-08-20T00:46:32.491Z,67.33
2016-08-20T00:47:06.787Z,67.33
2016-08-20T00:47:41.087Z,67.33
2016-08-20T00:48:15.392Z,67.33
2016-08-20T00:48:49.679Z,67.14
2016-08-20T00:49:23.970Z,67.33
2016-08-20T00:49:58.262Z,67.33
2016-08-20T00:50:32.547Z,67.24
2016-08-20T00:51:06.880Z,67.33
2016-08-20T00:51:41.170Z,67.33
2016-08-20T00:52:15.475Z,67.33
2016-08-20T00:52:49.774Z,66.94
2016-08-20T00:53:24.075Z,67.14
2016-08-20T00:53:58.385Z,67.24
2016-08-20T00:54:32.676Z,66.94
2016-08-20T00:55:06.974Z,67.33
2016-08-20T00:55:41.279Z,67.24
2016-08-20T00:56:15.583Z,67.43
2016-08-20T00:56:49.889Z,67.33
2016-08-20T00:57:24.195Z,67.33
2016-08-20T00:57:58.494Z,67.33
2016-08-20T00:58:32.788Z,67.24
2016-08-20T00:59:07.087Z,67.04
2016-08-20T00:59:41.374Z,67.04
2016-08-20T01:00:15.671Z,67.24
2016-08-20T01:00:49.987Z,67.43
2016-08-20T01:01:24.299Z,67.04
2016-08-20T01:01:58.601Z,67.14
2016-08-20T01:02:32.911Z,67.24
2016-08-20T01:03:07.209Z,67.14
2016-08-20T01:03:41.519Z,67.14
2016-08-20T01:04:15.817Z,67.43
2016-08-20T01:04:50.100Z,67.04
2016-08-20T01:05:24.386Z,67.04
2016-08-20T01:05:58.689Z,67.04
2016-08-20T01:06:32.982Z,67.14
2016-08-20T01:07:07.270Z,67.04
2016-08-20T01:07:41.563Z,67.14
2016-08-20T01:08:15.857Z,67.14
2016-08-20T01:08:50.141Z,67.14
2016-08-20T01:09:24.420Z,67.04
2016-08-20T01:09:58.719Z,67.14
2016-08-20T01:10:33.022Z,67.14
2016-08-20T01:11:07.301Z,67.14
2016-08-20T01:11:41.595Z,67.14
2016-08-20T01:12:15.887Z,67.04
2016-08-20T01:12:50.184Z,67.24
2016-08-20T01:13:24.476Z,67.33
2016-08-20T01:13:58.766Z,67.14
2016-08-20T01:14:33.052Z,67.04
2016-08-20T01:15:07.341Z,67.24
2016-08-20T01:15:41.660Z,67.43
2016-08-20T01:16:15.950Z,67.04
2016-08-20T01:16:50.238Z,67.04
2016-08-20T01:17:24.530Z,67.04
2016-08-20T01:17:58.834Z,67.43
2016-08-20T01:18:33.138Z,67.43
2016-08-20T01:19:07.418Z,67.33
2016-08-20T01:19:41.721Z,67.33
2016-08-20T01:20:16.021Z,67.33
2016-08-20T01:20:50.313Z,67.43
2016-08-20T01:21:24.623Z,67.43
2016-08-20T01:21:58.919Z,67.14
2016-08-20T01:22:33.226Z,67.14
2016-08-20T01:23:07.508Z,67.14
2016-08-20T01:23:41.810Z,67.14
2016-08-20T01:24:16.105Z,67.33
2016-08-20T01:24:50.400Z,67.33
2016-08-20T01:25:24.697Z,67.52
2016-08-20T01:25:59.009Z,67.43
2016-08-20T01:26:33.322Z,67.04
2016-08-20T01:27:07.653Z,67.24
2016-08-20T01:27:41.948Z,67.33
2016-08-20T01:28:16.247Z,67.52
2016-08-20T01:28:50.536Z,67.43
2016-08-20T01:29:24.825Z,67.24
2016-08-20T01:29:59.115Z,67.43
2016-08-20T01:30:33.409Z,67.52
2016-08-20T01:31:07.709Z,67.43
2016-08-20T01:31:42.007Z,67.43
2016-08-20T01:32:16.320Z,67.43
2016-08-20T01:32:50.613Z,67.43
2016-08-20T01:33:24.902Z,67.43
2016-08-20T01:33:59.214Z,67.43
2016-08-20T01:34:33.536Z,67.33
2016-08-20T01:35:07.830Z,67.43
2016-08-20T01:35:42.136Z,67.62
2016-08-20T01:36:16.450Z,67.62
2016-08-20T01:36:50.744Z,67.62
2016-08-20T01:37:25.063Z,67.62
2016-08-20T01:37:59.359Z,67.33
2016-08-20T01:38:33.664Z,67.33
2016-08-20T01:39:07.982Z,67.52
2016-08-20T01:39:42.291Z,67.33
2016-08-20T01:40:16.597Z,67.33
2016-08-20T01:40:50.892Z,67.33
2016-08-20T01:41:25.200Z,67.43
2016-08-20T01:41:59.516Z,67.33
2016-08-20T01:42:33.826Z,67.33
2016-08-20T01:43:08.130Z,67.33
2016-08-20T01:43:42.427Z,67.52
2016-08-20T01:44:16.727Z,67.33
2016-08-20T01:44:51.016Z,67.33
2016-08-20T01:45:25.317Z,67.52
2016-08-20T01:45:59.606Z,67.52
2016-08-20T01:46:33.893Z,67.52
2016-08-20T01:47:08.208Z,67.33
2016-08-20T01:47:42.504Z,67.33
2016-08-20T01:48:16.809Z,67.33
2016-08-20T01:48:51.113Z,67.14
2016-08-20T01:49:25.408Z,67.24
2016-08-20T01:49:59.714Z,67.52
2016-08-20T01:50:34.032Z,67.24
2016-08-20T01:51:08.332Z,67.52
2016-08-20T01:51:42.623Z,67.43
2016-08-20T01:52:16.920Z,67.43
2016-08-20T01:52:51.208Z,67.43
2016-08-20T01:53:25.504Z,67.43
2016-08-20T01:53:59.809Z,67.14
2016-08-20T01:54:34.111Z,67.14
2016-08-20T01:55:08.394Z,67.14
2016-08-20T01:55:42.687Z,67.43
2016-08-20T01:56:16.982Z,67.24
2016-08-20T01:56:51.282Z,67.33
2016-08-20T01:57:25.589Z,67.33
2016-08-20T01:57:59.911Z,67.24
2016-08-20T01:58:34.205Z,67.43
2016-08-20T01:59:08.509Z,67.43
2016-08-20T01:59:42.797Z,67.33
2016-08-20T02:00:17.096Z,67.33
2016-08-20T02:00:51.419Z,67.33
2016-08-20T02:01:25.704Z,67.52
2016-08-20T02:02:00.012Z,67.33
2016-08-20T02:02:34.317Z,67.52
2016-08-20T02:03:08.602Z,67.33
2016-08-20T02:03:42.911Z,67.33
2016-08-20T02:04:17.213Z,67.33
2016-08-20T02:04:51.506Z,67.43
2016-08-20T02:05:25.809Z,67.43
2016-08-20T02:06:00.100Z,67.14
2016-08-20T02:06:34.414Z,67.33
2016-08-20T02:07:08.702Z,67.33
2016-08-20T02:07:43.016Z,67.33
2016-08-20T02:08:17.306Z,67.62
2016-08-20T02:08:51.599Z,67.33
2016-08-20T02:09:25.909Z,67.33
2016-08-20T02:10:00.219Z,67.43
2016-08-20T02:10:34.518Z,67.33
2016-08-20T02:11:08.808Z,67.62
2016-08-20T02:11:43.099Z,67.91
2016-08-20T02:12:17.401Z,67.33
2016-08-20T02:12:51.707Z,67.52
2016-08-20T02:13:26.009Z,67.52
2016-08-20T02:14:00.319Z,67.62
2016-08-20T02:14:34.626Z,67.43
2016-08-20T02:15:08.898Z,67.43
2016-08-20T02:15:43.189Z,67.43
2016-08-20T02:16:17.472Z,67.33
2016-08-20T02:16:51.749Z,67.43
2016-08-20T02:17:26.039Z,67.62
2016-08-20T02:18:00.328Z,67.33
2016-08-20T02:18:34.635Z,67.72
2016-08-20T02:19:08.930Z,67.43
2016-08-20T02:19:43.230Z,67.72
2016-08-20T02:20:17.536Z,67.91
2016-08-20T02:20:51.845Z,67.72
2016-08-20T02:21:26.153Z,67.72
2016-08-20T02:22:00.447Z,67.72
2016-08-20T02:22:34.734Z,67.33
2016-08-20T02:23:09.039Z,67.72
2016-08-20T02:23:43.336Z,67.62
2016-08-20T02:24:17.620Z,67.24
2016-08-20T02:24:51.914Z,67.72
2016-08-20T02:25:26.223Z,67.72
2016-08-20T02:26:00.514Z,67.24
2016-08-20T02:26:34.806Z,67.72
2016-08-20T02:27:09.090Z,67.14
2016-08-20T02:27:43.386Z,67.62
2016-08-20T02:28:17.681Z,67.72
2016-08-20T02:28:51.973Z,67.62
2016-08-20T02:29:26.249Z,67.52
2016-08-20T02:30:00.551Z,67.72
2016-08-20T02:30:34.841Z,67.14
2016-08-20T02:31:09.144Z,67.62
2016-08-20T02:31:43.448Z,67.33
2016-08-20T02:32:17.745Z,67.72
2016-08-20T02:32:52.027Z,67.72
2016-08-20T02:33:26.319Z,67.62
2016-08-20T02:34:00.616Z,67.24
2016-08-20T02:34:34.902Z,67.72
2016-08-20T02:35:09.197Z,67.72
2016-08-20T02:35:43.499Z,67.24
2016-08-20T02:36:17.806Z,67.62
2016-08-20T02:36:52.120Z,67.72
2016-08-20T02:37:26.425Z,67.33
2016-08-20T02:38:00.713Z,67.72
2016-08-20T02:38:35.009Z,67.72
2016-08-20T02:39:09.317Z,67.72
2016-08-20T02:39:43.598Z,67.72
2016-08-20T02:40:17.894Z,68.01
2016-08-20T02:40:52.180Z,67.72
2016-08-20T02:41:26.486Z,67.72
2016-08-20T02:42:00.802Z,67.33
2016-08-20T02:42:35.104Z,67.33
2016-08-20T02:43:09.415Z,68.01
2016-08-20T02:43:43.695Z,67.52
2016-08-20T02:44:17.993Z,67.91
2016-08-20T02:44:52.266Z,67.72
2016-08-20T02:45:26.552Z,67.72
2016-08-20T02:46:00.849Z,68.01
2016-08-20T02:46:35.147Z,67.72
2016-08-20T02:47:09.442Z,67.72
2016-08-20T02:47:43.725Z,67.91
2016-08-20T02:48:18.021Z,68.01
2016-08-20T02:48:52.326Z,67.72
2016-08-20T02:49:26.618Z,67.33
2016-08-20T02:50:00.905Z,67.62
2016-08-20T02:50:35.206Z,67.62
2016-08-20T02:51:09.489Z,67.62
2016-08-20T02:51:43.783Z,67.72
2016-08-20T02:52:18.081Z,67.33
2016-08-20T02:52:52.366Z,67.72
2016-08-20T02:53:26.646Z,67.62
2016-08-20T02:54:00.950Z,67.72
2016-08-20T02:54:35.238Z,67.62
2016-08-20T02:55:09.539Z,67.62
2016-08-20T02:55:43.840Z,67.72
2016-08-20T02:56:18.122Z,67.72
2016-08-20T02:56:52.411Z,67.72
2016-08-20T02:57:26.690Z,67.33
2016-08-20T02:58:00.995Z,67.72
2016-08-20T02:58:35.294Z,67.62
2016-08-20T02:59:09.581Z,67.62
2016-08-20T02:59:43.903Z,67.62
2016-08-20T03:00:18.189Z,67.52
2016-08-20T03:00:52.489Z,67.33
2016-08-20T03:01:26.789Z,67.52
2016-08-20T03:02:01.090Z,67.24
2016-08-20T03:02:35.377Z,67.72
2016-08-20T03:03:09.656Z,67.72
2016-08-20T03:03:43.941Z,67.62
2016-08-20T03:04:18.222Z,67.52
2016-08-20T03:04:52.507Z,67.72
2016-08-20T03:05:26.801Z,67.72
2016-08-20T03:06:01.125Z,67.43
2016-08-20T03:06:35.428Z,67.62
2016-08-20T03:07:09.732Z,67.62
2016-08-20T03:07:44.030Z,67.62
2016-08-20T03:08:18.321Z,67.62
2016-08-20T03:08:52.607Z,67.52
2016-08-20T03:09:26.901Z,67.62
2016-08-20T03:10:01.197Z,67.72
2016-08-20T03:10:35.491Z,67.91
2016-08-20T03:11:09.789Z,67.33
2016-08-20T03:11:44.098Z,67.91
2016-08-20T03:12:18.402Z,67.62
2016-08-20T03:12:52.707Z,67.72
2016-08-20T03:13:26.991Z,67.24
2016-08-20T03:14:01.286Z,67.24
2016-08-20T03:14:35.606Z,67.14
2016-08-20T03:15:09.917Z,67.72
2016-08-20T03:15:44.213Z,67.72
2016-08-20T03:16:18.518Z,67.72
2016-08-20T03:16:52.817Z,67.91
2016-08-20T03:17:27.135Z,67.72
2016-08-20T03:18:01.432Z,67.72
2016-08-20T03:18:35.733Z,67.33
2016-08-20T03:19:10.021Z,67.82
2016-08-20T03:19:44.318Z,67.33
2016-08-20T03:20:18.605Z,67.62
2016-08-20T03:20:52.908Z,67.72
2016-08-20T03:21:27.214Z,67.62
2016-08-20T03:22:01.512Z,67.62
2016-08-20T03:22:35.803Z,67.33
2016-08-20T03:23:10.095Z,67.43
2016-08-20T03:23:44.384Z,67.33
2016-08-20T03:24:18.678Z,67.43
2016-08-20T03:24:52.977Z,67.14
2016-08-20T03:25:27.294Z,67.33
2016-08-20T03:26:01.625Z,67.52
2016-08-20T03:26:35.927Z,67.62
2016-08-20T03:27:10.226Z,67.33
2016-08-20T03:27:44.544Z,67.33
2016-08-20T03:28:18.837Z,67.33
2016-08-20T03:28:53.143Z,67.43
2016-08-20T03:29:27.435Z,67.52
2016-08-20T03:30:01.713Z,67.43
2016-08-20T03:30:36.008Z,67.33
2016-08-20T03:31:10.288Z,67.33
2016-08-20T03:31:44.586Z,67.62
2016-08-20T03:32:18.888Z,67.33
2016-08-20T03:32:53.173Z,67.91
2016-08-20T03:33:27.465Z,67.24
2016-08-20T03:34:01.744Z,67.43
2016-08-20T03:34:36.033Z,67.33
2016-08-20T03:35:10.329Z,67.72
2016-08-20T03:35:44.610Z,67.52
2016-08-20T03:36:18.903Z,67.43
2016-08-20T03:36:53.217Z,67.33
2016-08-20T03:37:27.498Z,67.43
2016-08-20T03:38:01.792Z,67.62
2016-08-20T03:38:36.100Z,67.33
2016-08-20T03:39:10.379Z,67.33
2016-08-20T03:39:44.664Z,67.52
2016-08-20T03:40:18.951Z,67.62
2016-08-20T03:40:53.241Z,67.43
2016-08-20T03:41:27.528Z,67.62
2016-08-20T03:42:01.834Z,67.33
2016-08-20T03:42:36.147Z,67.62
2016-08-20T03:43:10.433Z,67.52
2016-08-20T03:43:44.734Z,67.33
2016-08-20T03:44:19.023Z,67.43
2016-08-20T03:44:53.316Z,67.62
2016-08-20T03:45:27.627Z,67.72
2016-08-20T03:46:01.920Z,67.52
2016-08-20T03:46:36.235Z,67.43
2016-08-20T03:47:10.537Z,67.33
2016-08-20T03:47:44.855Z,67.33
2016-08-20T03:48:19.152Z,67.33
2016-08-20T03:48:53.446Z,67.33
2016-08-20T03:49:27.741Z,67.62
2016-08-20T03:50:02.030Z,67.43
2016-08-20T03:50:36.332Z,67.33
2016-08-20T03:51:10.638Z,67.43
2016-08-20T03:51:44.941Z,67.33
2016-08-20T03:52:19.228Z,67.33
2016-08-20T03:52:53.519Z,67.33
2016-08-20T03:53:27.867Z,67.33
2016-08-20T03:54:02.167Z,67.43
2016-08-20T03:54:36.447Z,67.14
2016-08-20T03:55:10.762Z,67.33
2016-08-20T03:55:45.069Z,67.43
2016-08-20T03:56:19.363Z,67.33
2016-08-20T03:56:53.671Z,67.33
2016-08-20T03:57:27.980Z,67.33
2016-08-20T03:58:02.280Z,67.14
2016-08-20T03:58:36.582Z,67.24
2016-08-20T03:59:10.859Z,67.33
2016-08-20T03:59:45.154Z,67.14
2016-08-20T04:00:19.432Z,67.14
2016-08-20T04:00:53.745Z,67.14
2016-08-20T04:01:28.035Z,67.33
2016-08-20T04:02:02.335Z,67.14
2016-08-20T04:02:36.647Z,67.14
2016-08-20T04:03:10.952Z,67.33
2016-08-20T04:03:45.263Z,67.33
2016-08-20T04:04:19.552Z,67.33
2016-08-20T04:04:53.835Z,67.24
2016-08-20T04:05:28.141Z,67.33
2016-08-20T04:06:02.447Z,67.14
2016-08-20T04:06:36.771Z,67.33
2016-08-20T04:07:11.051Z,67.52
2016-08-20T04:07:45.346Z,67.52
2016-08-20T04:08:19.650Z,67.14
2016-08-20T04:08:53.938Z,67.14
2016-08-20T04:09:28.233Z,67.52
2016-08-20T04:10:02.551Z,67.14
2016-08-20T04:10:36.833Z,67.43
2016-08-20T04:11:11.136Z,67.33
2016-08-20T04:11:45.442Z,67.43
2016-08-20T04:12:19.735Z,67.52
2016-08-20T04:12:54.036Z,67.24
2016-08-20T04:13:28.334Z,67.43
2016-08-20T04:14:02.633Z,67.14
2016-08-20T04:14:36.935Z,67.33
2016-08-20T04:15:11.240Z,67.33
2016-08-20T04:15:45.545Z,67.52
2016-08-20T04:16:19.842Z,67.33
2016-08-20T04:16:54.137Z,67.33
2016-08-20T04:17:28.434Z,67.33
2016-08-20T04:18:02.740Z,67.52
2016-08-20T04:18:37.031Z,67.43
2016-08-20T04:19:11.338Z,67.24
2016-08-20T04:19:45.640Z,67.24
2016-08-20T04:20:19.927Z,67.52
2016-08-20T04:20:54.206Z,67.33
2016-08-20T04:21:28.501Z,67.52
2016-08-20T04:22:02.791Z,67.43
2016-08-20T04:22:37.089Z,67.43
2016-08-20T04:23:11.387Z,67.52
2016-08-20T04:23:45.694Z,67.43
2016-08-20T04:24:19.993Z,67.33
2016-08-20T04:24:54.299Z,67.14
2016-08-20T04:25:28.600Z,67.43
2016-08-20T04:26:02.892Z,67.33
2016-08-20T04:26:37.210Z,67.33
2016-08-20T04:27:11.512Z,67.52
2016-08-20T04:27:45.793Z,67.52
2016-08-20T04:28:20.086Z,67.33
2016-08-20T04:28:54.383Z,67.33
2016-08-20T04:29:28.680Z,67.24
2016-08-20T04:30:02.974Z,67.33
2016-08-20T04:30:37.278Z,67.43
2016-08-20T04:31:11.578Z,67.33
2016-08-20T04:31:45.861Z,67.33
2016-08-20T04:32:20.160Z,67.33
2016-08-20T04:32:54.463Z,67.33
2016-08-20T04:33:28.730Z,67.33
2016-08-20T04:34:03.025Z,67.14
2016-08-20T04:34:37.330Z,67.33
2016-08-20T04:35:11.640Z,67.24
2016-08-20T04:35:45.947Z,67.24
2016-08-20T04:36:20.234Z,67.33
2016-08-20T04:36:54.521Z,67.43
2016-08-20T04:37:28.824Z,67.52
2016-08-20T04:38:03.128Z,67.52
2016-08-20T04:38:37.424Z,67.33
2016-08-20T04:39:11.714Z,67.52
2016-08-20T04:39:46.021Z,67.33
2016-08-20T04:40:20.327Z,67.43
2016-08-20T04:40:54.616Z,67.33
2016-08-20T04:41:28.916Z,67.43
2016-08-20T04:42:03.210Z,67.43
2016-08-20T04:42:37.499Z,67.33
2016-08-20T04:43:11.816Z,67.52
2016-08-20T04:43:46.143Z,67.33
2016-08-20T04:44:20.440Z,67.33
2016-08-20T04:44:54.725Z,67.33
2016-08-20T04:45:29.011Z,67.33
2016-08-20T04:46:03.307Z,67.33
2016-08-20T04:46:37.600Z,67.52
2016-08-20T04:47:11.918Z,67.52
2016-08-20T04:47:46.224Z,67.43
2016-08-20T04:48:20.505Z,67.52
2016-08-20T04:48:54.817Z,67.33
2016-08-20T04:49:29.102Z,67.33
2016-08-20T04:50:03.401Z,67.33
2016-08-20T04:50:37.706Z,67.52
2016-08-20T04:51:12.017Z,67.43
2016-08-20T04:51:46.313Z,67.43
2016-08-20T04:52:20.617Z,67.33
2016-08-20T04:52:54.911Z,67.33
2016-08-20T04:53:29.215Z,67.24
2016-08-20T04:54:03.514Z,67.33
2016-08-20T04:54:37.796Z,67.33
2016-08-20T04:55:12.093Z,67.33
2016-08-20T04:55:46.392Z,67.33
2016-08-20T04:56:20.704Z,67.62
2016-08-20T04:56:55.002Z,67.43
2016-08-20T04:57:29.290Z,67.33
2016-08-20T04:58:03.590Z,67.43
2016-08-20T04:58:37.883Z,67.33
2016-08-20T04:59:12.161Z,67.33
2016-08-20T04:59:46.457Z,67.62
2016-08-20T05:00:20.748Z,67.62
2016-08-20T05:00:55.038Z,67.33
2016-08-20T05:01:29.331Z,67.33
2016-08-20T05:02:03.625Z,67.62
2016-08-20T05:02:37.938Z,67.62
2016-08-20T05:03:12.254Z,67.62
2016-08-20T05:03:46.555Z,67.33
2016-08-20T05:04:20.834Z,67.52
2016-08-20T05:04:55.144Z,67.33
2016-08-20T05:05:29.449Z,67.33
2016-08-20T05:06:03.758Z,67.62
2016-08-20T05:06:38.037Z,67.33
2016-08-20T05:07:12.336Z,67.62
2016-08-20T05:07:46.629Z,67.33
2016-08-20T05:08:20.914Z,67.33
2016-08-20T05:08:55.208Z,67.43
2016-08-20T05:09:29.495Z,67.33
2016-08-20T05:10:03.788Z,67.33
2016-08-20T05:10:38.087Z,67.33
2016-08-20T05:11:12.386Z,67.33
2016-08-20T05:11:46.692Z,67.33
2016-08-20T05:12:20.982Z,67.43
2016-08-20T05:12:55.278Z,67.43
2016-08-20T05:13:29.574Z,67.43
2016-08-20T05:14:03.876Z,67.52
2016-08-20T05:14:38.169Z,67.43
2016-08-20T05:15:12.462Z,67.43
2016-08-20T05:15:46.758Z,67.43
2016-08-20T05:16:21.052Z,67.62
2016-08-20T05:16:55.376Z,67.43
2016-08-20T05:17:29.688Z,67.43
2016-08-20T05:18:03.986Z,67.43
2016-08-20T05:18:38.284Z,67.62
2016-08-20T05:19:12.574Z,67.43
2016-08-20T05:19:46.866Z,67.33
2016-08-20T05:20:21.162Z,67.33
2016-08-20T05:20:55.460Z,67.62
2016-08-20T05:21:29.754Z,67.43
2016-08-20T05:22:04.067Z,67.62
2016-08-20T05:22:38.360Z,67.43
2016-08-20T05:23:12.662Z,67.33
2016-08-20T05:23:46.977Z,67.43
2016-08-20T05:24:21.270Z,67.43
2016-08-20T05:24:55.584Z,67.43
2016-08-20T05:25:29.885Z,67.33
2016-08-20T05:26:04.173Z,67.33
2016-08-20T05:26:38.475Z,67.33
2016-08-20T05:27:12.754Z,67.33
2016-08-20T05:27:47.042Z,67.33
2016-08-20T05:28:21.331Z,67.4
2016-08-20T05:28:55.630Z,67.43
2016-08-20T05:29:29.933Z,67.52
2016-08-20T05:30:04.223Z,67.33
2016-08-20T05:30:38.512Z,67.33
2016-08-20T05:31:12.813Z,67.24
2016-08-20T05:31:47.114Z,67.24
2016-08-20T05:32:21.411Z,67.33
2016-08-20T05:32:55.703Z,67.33
2016-08-20T05:33:30.018Z,67.33
2016-08-20T05:34:04.296Z,67.33
2016-08-20T05:34:38.586Z,67.33
2016-08-20T05:35:12.881Z,67.43
2016-08-20T05:35:47.164Z,67.43
2016-08-20T05:36:21.481Z,67.33
2016-08-20T05:36:55.779Z,67.43
2016-08-20T05:37:30.075Z,67.33
2016-08-20T05:38:04.384Z,67.52
2016-08-20T05:38:38.682Z,67.14
2016-08-20T05:39:12.984Z,67.33
2016-08-20T05:39:47.287Z,67.33
2016-08-20T05:40:21.595Z,67.52
2016-08-20T05:40:55.886Z,67.33
2016-08-20T05:41:30.182Z,67.33
2016-08-20T05:42:04.477Z,67.24
2016-08-20T05:42:38.765Z,67.43
2016-08-20T05:43:13.045Z,67.33
2016-08-20T05:43:47.341Z,67.52
2016-08-20T05:44:21.632Z,67.33
2016-08-20T05:44:55.925Z,67.52
2016-08-20T05:45:30.222Z,67.33
2016-08-20T05:46:04.523Z,67.52
2016-08-20T05:46:38.849Z,67.33
2016-08-20T05:47:13.162Z,67.24
2016-08-20T05:47:47.442Z,67.24
2016-08-20T05:48:21.744Z,67.33
2016-08-20T05:48:56.048Z,67.33
2016-08-20T05:49:30.358Z,67.43
2016-08-20T05:50:04.661Z,67.33
2016-08-20T05:50:38.969Z,67.14
2016-08-20T05:51:13.271Z,67.52
2016-08-20T05:51:47.557Z,67.33
2016-08-20T05:52:21.855Z,67.43
2016-08-20T05:52:56.178Z,67.33
2016-08-20T05:53:30.475Z,67.49
2016-08-20T05:54:04.758Z,67.33
2016-08-20T05:54:39.045Z,67.33
2016-08-20T05:55:13.344Z,67.52
2016-08-20T05:55:47.657Z,67.33
2016-08-20T05:56:21.951Z,67.43
2016-08-20T05:56:56.242Z,67.33
2016-08-20T05:57:30.537Z,67.33
2016-08-20T05:58:04.834Z,67.52
2016-08-20T05:58:39.133Z,67.24
2016-08-20T05:59:13.409Z,67.52
2016-08-20T05:59:47.700Z,67.52
2016-08-20T06:00:22.003Z,67.33
2016-08-20T06:00:56.301Z,67.52
2016-08-20T06:01:30.576Z,67.24
2016-08-20T06:02:04.869Z,67.52
2016-08-20T06:02:39.168Z,67.14
2016-08-20T06:03:13.465Z,67.52
2016-08-20T06:03:47.769Z,67.49
2016-08-20T06:04:22.065Z,67.43
2016-08-20T06:04:56.367Z,67.52
2016-08-20T06:05:30.674Z,67.33
2016-08-20T06:06:04.981Z,67.52
2016-08-20T06:06:39.267Z,67.14
2016-08-20T06:07:13.561Z,67.33
2016-08-20T06:07:47.855Z,67.3
2016-08-20T06:08:22.153Z,67.33
2016-08-20T06:08:56.443Z,67.24
2016-08-20T06:09:30.736Z,67.14
2016-08-20T06:10:05.025Z,67.33
2016-08-20T06:10:39.324Z,67.24
2016-08-20T06:11:13.621Z,67.52
2016-08-20T06:11:47.912Z,67.52
2016-08-20T06:12:22.217Z,67.52
2016-08-20T06:12:56.528Z,67.33
2016-08-20T06:13:30.816Z,67.24
2016-08-20T06:14:05.129Z,67.52
2016-08-20T06:14:39.425Z,67.33
2016-08-20T06:15:13.716Z,67.33
2016-08-20T06:15:48.015Z,67.14
2016-08-20T06:16:22.311Z,67.14
2016-08-20T06:16:56.617Z,67.52
2016-08-20T06:17:30.899Z,67.14
2016-08-20T06:18:05.178Z,67.43
2016-08-20T06:18:39.487Z,67.14
2016-08-20T06:19:13.778Z,67.24
2016-08-20T06:19:48.085Z,67.33
2016-08-20T06:20:22.381Z,67.33
2016-08-20T06:20:56.669Z,67.33
2016-08-20T06:21:30.957Z,67.52
2016-08-20T06:22:05.244Z,67.3
2016-08-20T06:22:39.539Z,67.43
2016-08-20T06:23:13.843Z,67.62
2016-08-20T06:23:48.153Z,67.43
2016-08-20T06:24:22.451Z,67.14
2016-08-20T06:24:56.773Z,67.43
2016-08-20T06:25:31.074Z,67.33
2016-08-20T06:26:05.392Z,67.33
2016-08-20T06:26:39.693Z,67.14
2016-08-20T06:27:13.988Z,67.33
2016-08-20T06:27:48.307Z,67.33
2016-08-20T06:28:22.594Z,67.33
2016-08-20T06:28:56.877Z,67.43
2016-08-20T06:29:31.184Z,67.14
2016-08-20T06:30:05.489Z,67.33
2016-08-20T06:30:39.792Z,67.43
2016-08-20T06:31:14.091Z,67.24
2016-08-20T06:31:48.385Z,67.52
2016-08-20T06:32:22.676Z,67.52
2016-08-20T06:32:56.974Z,67.33
2016-08-20T06:33:31.275Z,67.33
2016-08-20T06:34:05.569Z,67.33
2016-08-20T06:34:39.873Z,67.62
2016-08-20T06:35:14.162Z,67.43
2016-08-20T06:35:48.457Z,67.52
2016-08-20T06:36:22.767Z,67.72
2016-08-20T06:36:57.049Z,67.43
2016-08-20T06:37:31.351Z,67.72
2016-08-20T06:38:05.646Z,67.59
2016-08-20T06:38:39.931Z,67.62
2016-08-20T06:39:14.249Z,67.52
2016-08-20T06:39:48.541Z,67.43
2016-08-20T06:40:22.834Z,67.72
2016-08-20T06:40:57.137Z,68.01
2016-08-20T06:41:31.450Z,67.82
2016-08-20T06:42:05.758Z,67.62
2016-08-20T06:42:40.080Z,67.72
2016-08-20T06:43:14.385Z,67.72
2016-08-20T06:43:48.686Z,67.62
2016-08-20T06:44:22.985Z,67.62
2016-08-20T06:44:57.282Z,67.62
2016-08-20T06:45:31.591Z,67.72
2016-08-20T06:46:05.890Z,67.72
2016-08-20T06:46:40.178Z,67.72
2016-08-20T06:47:14.483Z,67.72
2016-08-20T06:47:48.767Z,67.24
2016-08-20T06:48:23.042Z,67.43
2016-08-20T06:48:57.321Z,67.24
2016-08-20T06:49:31.624Z,67.72
2016-08-20T06:50:05.909Z,67.43
2016-08-20T06:50:40.213Z,67.72
2016-08-20T06:51:14.512Z,67.91
2016-08-20T06:51:48.809Z,67.72
2016-08-20T06:52:23.090Z,67.72
2016-08-20T06:52:57.403Z,67.72
2016-08-20T06:53:31.709Z,67.72
2016-08-20T06:54:06.003Z,67.72
2016-08-20T06:54:40.298Z,67.62
2016-08-20T06:55:14.595Z,67.72
2016-08-20T06:55:48.880Z,67.43
2016-08-20T06:56:23.159Z,67.62
2016-08-20T06:56:57.491Z,67.62
2016-08-20T06:57:31.796Z,67.52
2016-08-20T06:58:06.112Z,68.01
2016-08-20T06:58:40.405Z,67.2
2016-08-20T06:59:14.699Z,68.01
2016-08-20T06:59:48.998Z,67.72
2016-08-20T07:00:23.283Z,67.59
2016-08-20T07:00:57.592Z,67.91
2016-08-20T07:01:31.892Z,67.72
2016-08-20T07:02:06.174Z,67.72
2016-08-20T07:02:40.474Z,67.33
2016-08-20T07:03:14.759Z,67.72
2016-08-20T07:03:49.051Z,67.24
2016-08-20T07:04:23.344Z,67.72
2016-08-20T07:04:57.640Z,67.33
2016-08-20T07:05:31.921Z,67.82
2016-08-20T07:06:06.218Z,68.01
2016-08-20T07:06:40.487Z,67.82
2016-08-20T07:07:14.778Z,67.72
2016-08-20T07:07:49.066Z,68.01
2016-08-20T07:08:23.350Z,67.62
2016-08-20T07:08:57.656Z,67.82
2016-08-20T07:09:31.967Z,67.33
2016-08-20T07:10:06.271Z,67.62
2016-08-20T07:10:40.557Z,67.14
2016-08-20T07:11:14.843Z,67.97
2016-08-20T07:11:49.139Z,68.01
2016-08-20T07:12:23.440Z,67.59
2016-08-20T07:12:57.738Z,68.01
2016-08-20T07:13:32.039Z,67.52
2016-08-20T07:14:06.336Z,67.91
2016-08-20T07:14:40.642Z,67.91
2016-08-20T07:15:14.945Z,68.1
2016-08-20T07:15:49.241Z,67.91
2016-08-20T07:16:23.534Z,67.69
2016-08-20T07:16:57.829Z,68.01
2016-08-20T07:17:32.150Z,67.72
2016-08-20T07:18:06.441Z,67.52
2016-08-20T07:18:40.736Z,67.91
2016-08-20T07:19:15.037Z,67.52
2016-08-20T07:19:49.338Z,67.91
2016-08-20T07:20:23.643Z,67.33
2016-08-20T07:20:57.922Z,67.62
2016-08-20T07:21:32.212Z,67.33